This is the latest recevied weather packets stored in our database for station/object DL8BNG-13. If no packets are shown the sender has not sent any weather packets the latest 10 day(s).
| Time | Temp. | Humidity | Pressure | Rain* | Wind** | Luminosity | Snow |
|---|---|---|---|---|---|---|---|
| 1777843802 | 18.33° C | 38% | - | 0 mm | - | - | - |
| 1777842902 | 18.89° C | 38% | - | 0 mm | - | - | - |
| 1777842002 | 18.89° C | 38% | - | 0 mm | - | - | - |
| 1777841102 | 18.89° C | 38% | - | 0 mm | - | - | - |
| 1777839302 | 19.44° C | 38% | - | 0 mm | - | - | - |
| 1777838402 | 19.44° C | 39% | - | 0 mm | - | - | - |
| 1777837502 | 18.33° C | 44% | - | 0 mm | - | - | - |
| 1777836603 | 18.89° C | 44% | - | 0 mm | - | - | - |
| 1777835702 | 20° C | 42% | - | 0 mm | - | - | - |
| 1777834803 | 20.56° C | 38% | - | 0 mm | - | - | - |
| 1777833902 | 20.56° C | 38% | - | 0 mm | - | - | - |
| 1777833002 | 20.56° C | 39% | - | 0 mm | - | - | - |
| 1777832102 | 21.67° C | 39% | - | 0 mm | - | - | - |
| 1777831202 | 22.22° C | 37% | - | 0 mm | - | - | - |
| 1777830302 | 22.78° C | 35% | - | 0 mm | - | - | - |
| 1777829402 | 23.33° C | 34% | - | 0 mm | - | - | - |
| 1777828503 | 23.89° C | 33% | - | 0 mm | - | - | - |
| 1777827603 | 24.44° C | 31% | - | 0 mm | - | - | - |
| 1777826702 | 25° C | 30% | - | 0 mm | - | - | - |
| 1777825802 | 25.56° C | 29% | - | 0 mm | - | - | - |
| 1777824902 | 26.11° C | 28% | - | 0 mm | - | - | - |
| 1777824003 | 26.11° C | 29% | - | 0 mm | - | - | - |
| 1777823103 | 26.67° C | 29% | - | 0 mm | - | - | - |
| 1777822202 | 27.22° C | 29% | - | 0 mm | - | - | - |
| 1777821303 | 26.67° C | 30% | - | 0 mm | - | - | - |
* Rain since midnight (hover to see other rain measurements)
** Current wind speed in m/s (hover to see current wind gust speed)